Huvudsida
METAR-TAF:

METAR-TAF

Flygplatser :

Addis Abeba Bole internationella flygplats

Addis Abeba, Etiopien

latitud: 08-59N, longitud: 038-48E, höjd: 2355 m

Aktuellt väderrapport

Denna rapport gjordes för 1 timme och 7 minuter sedan, klockan 20:00 UTC
Vind 6 kt från ost/nordost
Temperatur 14°C
Fuktighet 67%
Tryck 1029 hPa
Sikt 10 km eller mer
Brutna moln på en höjd av 2600 ft

METAR: HAAB 142000Z 07006KT 9999 BKN026 14/08 Q1029

Tid: 00:07 (21:07 UTC)

Väderprognos

Denna rapport gjordes för 17 timmar och 37 minuter sedan, klockan 03:30 UTC
Prognos gäller från 14 kl. 06 UTC till 15 kl. 12 UTC
Vind 9 kt från syd
Sikt 10 km eller mer
Få moln på en höjd av 3000 ft
Spridda moln på en höjd av 8000 ft

TAF: HAAB 140330Z 1406/1512 18009KT 9999 FEW030 SCT080

Aktuella väderrapporter och prognoser från 4000 flygplatser (METAR- och TAF-rapporter).

De tillgängliga stationerna syns som gula och röda prickar på kartan.

För musen över prickarna för att se namnen på stationerna.

Klicka sedan för att få väderrapporter och prognoser.

För att ändra kartan: Klicka på de gröna knapparna med ett svart kors på för att zooma in; den gröna knappen med ett streck på för att zooma ut; eller på de gröna pilarna för angränsande kartor.


METAR-TAF: